METAR Data
IDs: Format: Raw Decoded Include TAF

Data at: 2213 UTC 02 Aug 2021

LDZA 022200Z 00000KT CAVOK 18/16 Q1015 NOSIG